Plain City, OH

5:45 PM EDT on April 18, 2015 (GMT -0400)
StormOhio | | Change Station
CLOSE
Current Station
Personal Weather Station
Location: Plain City, OH
Elevation: 928 ft
Nearby Weather Stations

Elev 928 ft 40.10 °N, 83.26 °W | Updated 23 seconds ago

Partly Cloudy
Partly Cloudy
77.0 °F
Feels Like 78 °F
N
2.0
Wind Variable Wind from NNE
Gusts 6.0 mph

Today
High -- | Low -- °F
--% Chance of Precip.
Yesterday
High -- | Low -- °F
Precip. -- in
6:51 AM 8:14 PM
New Moon, 0% visible
Pressure 30.00 in
Visibility 10.0 miles
Clouds Scattered Clouds 7500 ft
Scattered Clouds 8500 ft
Heat Index 78 °F
Dew Point 55 °F
Humidity 46%
Rainfall in
Snow Depth Not available.
UV 2 out of 12
Pollen 11.30 out of 12
Air Quality Not available.
Flu Activity Regional
METAR KMRT 182134Z AUTO 10003KT 10SM SCT075 SCT085 24/05 A3000 RMK AO2 T02360047

More Conditions Fewer Conditions

Pressure 30.00 in
Visibility 10.0 miles
Clouds Scattered Clouds 7500 ft
Scattered Clouds 8500 ft
Heat Index 78 °F
Dew Point 55 °F
Humidity 46%
Rainfall in
Snow Depth Not available.
UV 2 out of 12
Pollen 11.30 out of 12
Air Quality Not available.
Flu Activity Regional
METAR KMRT 182134Z AUTO 10003KT 10SM SCT075 SCT085 24/05 A3000 RMK AO2 T02360047

More Conditions Fewer Conditions

10-Day Weather Forecast

Almanac

Astronomy

Apr. 18, 2015 Rise Set
Actual Time
Civil Twilight
Nautical Twilight
Astronomical Twilight
Moon
Length of Visible Light
Length of Day
Tomorrow will be .
, % of the Moon is Illuminated

Today's Extremes

State Highs State Lows

Community

WunderPhotos

Upload Photos

1,814,538 photos uploaded!

WunderBlogs® & News

Nearby

Air Quality

  Air Quality AQ Index Pollutant
Not available.

Snow Depth

Station Depth Elevation

Earthquake Activity

City Distance Mag. Time & Date
Minimum magnitude displayed is 2.5.

Coastal Water Temperatures

Place Temperature

Stations

Nearby Weather Stations

Station Location Temp. Windchill Dew Point Humidity Wind Precip. Elev Updated Type